Hauptseite
METAR-TAF:

METAR-TAF

Flughäfen :

Flughafen Gaborone

Gaborone, Botsuana

Breite: 24-13S, Länge: 025-55E, Höhe: 1005 m

Beobachtung

Neuester Wetterbericht von vor 5 Stunden und 47 Minuten, um 21:00 UTC
Wind 2 kt aus Süd/Südost
Temperatur 15°C
Luftfeuchtigkeit 63%
Luftdruck 1026 hPa
Sichtweite 10 km oder mehr
keine Wolken unter 1500 m und keine Kumulonimbus oder Gewitterwolken

METAR: FBSK 192100Z 16002KT CAVOK 15/08 Q1026 NOSIG

Zeit: 04:47 (02:47 UTC)

Prognose

Neuester Wetterbericht von vor 4 Stunden und 47 Minuten, um 22:00 UTC
Gültige Prognose vom 20 um 00 UTC bis 21 um 06 UTC
Wind 3 kt aus unterschiedlichen Richtungen
Sichtweite 10 km oder mehr
keine Wolken unter 1500 m und keine Kumulonimbus oder Gewitterwolken
Übergehend zu
vom 20 um 06 UTC bis 20 um 08 UTC
Wind 4 kt aus Ost

TAF: FBSK 192200Z 2000/2106 VRB03KT CAVOK BECMG 2006/2008 09004KT

Wetterbeobachtungen und Prognosen von mehr als 4000 Flughäfen (METAR und TAF Bericht).

Die verfügbaren Stationen werden durch gelbe und rote Markierungen auf der Karte dargestellt.

Führen Sie die Maus auf sie, um den Namen der Station zu sehen.

Darauf klicken, um die Beobachtung von Wetterbeobachtungen und Prognosen zu sehen.

Um die Karte zu ändern : klicken Sie auf den grünen Tasten mit einem schwarzen Kreuz Zum Vergrößern, auf den grünen Button mit einem Gedankenstrich zu verkleinern, oder auf die grünen Pfeile für benachbarte Karten.


METAR-TAF: